sensor_id;sensor_type;location;lat;lon;timestamp;P1;durP1;ratioP1;P2;durP2;ratioP2
5412;SDS011;2729;50.056;8.678;2022-10-16T00:02:07;1.73;;;1.63;;
5412;SDS011;2729;50.056;8.678;2022-10-16T00:04:33;1.57;;;1.47;;
5412;SDS011;2729;50.056;8.678;2022-10-16T00:06:59;1.80;;;1.70;;
5412;SDS011;2729;50.056;8.678;2022-10-16T00:09:25;1.80;;;1.70;;
5412;SDS011;2729;50.056;8.678;2022-10-16T00:11:51;1.90;;;1.70;;
5412;SDS011;2729;50.056;8.678;2022-10-16T00:14:17;1.70;;;1.60;;
5412;SDS011;2729;50.056;8.678;2022-10-16T00:16:43;1.47;;;1.40;;
5412;SDS011;2729;50.056;8.678;2022-10-16T00:19:10;1.80;;;1.70;;
5412;SDS011;2729;50.056;8.678;2022-10-16T00:21:37;1.20;;;1.20;;
5412;SDS011;2729;50.056;8.678;2022-10-16T00:24:05;3.53;;;1.40;;
5412;SDS011;2729;50.056;8.678;2022-10-16T00:26:34;1.70;;;1.60;;
5412;SDS011;2729;50.056;8.678;2022-10-16T00:29:01;1.60;;;1.50;;
5412;SDS011;2729;50.056;8.678;2022-10-16T00:31:28;1.57;;;1.47;;
5412;SDS011;2729;50.056;8.678;2022-10-16T00:33:55;1.50;;;1.40;;
5412;SDS011;2729;50.056;8.678;2022-10-16T00:36:22;3.60;;;1.40;;
5412;SDS011;2729;50.056;8.678;2022-10-16T00:38:50;4.83;;;1.33;;
5412;SDS011;2729;50.056;8.678;2022-10-16T00:41:20;2.00;;;1.50;;
5412;SDS011;2729;50.056;8.678;2022-10-16T00:46:20;1.77;;;1.67;;
5412;SDS011;2729;50.056;8.678;2022-10-16T00:48:51;1.70;;;1.60;;
5412;SDS011;2729;50.056;8.678;2022-10-16T00:51:21;1.10;;;1.10;;
5412;SDS011;2729;50.056;8.678;2022-10-16T00:53:51;1.20;;;1.20;;
5412;SDS011;2729;50.056;8.678;2022-10-16T00:56:17;1.20;;;1.20;;
5412;SDS011;2729;50.056;8.678;2022-10-16T00:58:43;4.73;;;1.40;;
5412;SDS011;2729;50.056;8.678;2022-10-16T01:01:10;4.73;;;1.50;;
5412;SDS011;2729;50.056;8.678;2022-10-16T01:03:36;1.50;;;1.40;;
5412;SDS011;2729;50.056;8.678;2022-10-16T01:06:06;1.57;;;1.47;;
5412;SDS011;2729;50.056;8.678;2022-10-16T01:08:56;1.10;;;1.10;;
5412;SDS011;2729;50.056;8.678;2022-10-16T01:11:38;5.80;;;1.23;;
5412;SDS011;2729;50.056;8.678;2022-10-16T01:14:12;1.07;;;1.07;;
5412;SDS011;2729;50.056;8.678;2022-10-16T01:19:51;2.60;;;1.40;;
5412;SDS011;2729;50.056;8.678;2022-10-16T01:22:33;1.33;;;1.30;;
5412;SDS011;2729;50.056;8.678;2022-10-16T01:25:28;1.87;;;1.10;;
5412;SDS011;2729;50.056;8.678;2022-10-16T01:28:04;1.27;;;1.17;;
5412;SDS011;2729;50.056;8.678;2022-10-16T01:30:34;5.70;;;1.30;;
5412;SDS011;2729;50.056;8.678;2022-10-16T01:33:16;1.50;;;1.40;;
5412;SDS011;2729;50.056;8.678;2022-10-16T01:35:47;1.23;;;1.23;;
5412;SDS011;2729;50.056;8.678;2022-10-16T01:38:32;1.10;;;1.00;;
5412;SDS011;2729;50.056;8.678;2022-10-16T01:41:02;1.30;;;1.20;;
5412;SDS011;2729;50.056;8.678;2022-10-16T01:43:37;3.60;;;1.23;;
5412;SDS011;2729;50.056;8.678;2022-10-16T01:46:06;1.27;;;1.17;;
5412;SDS011;2729;50.056;8.678;2022-10-16T01:48:35;16.00;;;0.90;;
5412;SDS011;2729;50.056;8.678;2022-10-16T01:51:04;1.13;;;1.13;;
5412;SDS011;2729;50.056;8.678;2022-10-16T01:53:34;4.53;;;1.07;;
5412;SDS011;2729;50.056;8.678;2022-10-16T01:56:00;0.90;;;0.90;;
5412;SDS011;2729;50.056;8.678;2022-10-16T01:58:30;1.30;;;1.20;;
5412;SDS011;2729;50.056;8.678;2022-10-16T02:01:01;2.10;;;1.03;;
5412;SDS011;2729;50.056;8.678;2022-10-16T02:03:30;0.90;;;0.90;;
5412;SDS011;2729;50.056;8.678;2022-10-16T02:05:59;1.73;;;0.80;;
5412;SDS011;2729;50.056;8.678;2022-10-16T02:08:25;0.80;;;0.80;;
5412;SDS011;2729;50.056;8.678;2022-10-16T02:10:57;1.43;;;1.00;;
5412;SDS011;2729;50.056;8.678;2022-10-16T02:16:06;2.30;;;0.87;;
5412;SDS011;2729;50.056;8.678;2022-10-16T02:18:32;1.03;;;0.83;;
5412;SDS011;2729;50.056;8.678;2022-10-16T02:21:13;0.90;;;0.90;;
5412;SDS011;2729;50.056;8.678;2022-10-16T02:26:43;0.70;;;0.70;;
5412;SDS011;2729;50.056;8.678;2022-10-16T02:29:10;1.10;;;1.00;;
5412;SDS011;2729;50.056;8.678;2022-10-16T02:31:41;1.87;;;0.70;;
5412;SDS011;2729;50.056;8.678;2022-10-16T02:34:12;0.80;;;0.80;;
5412;SDS011;2729;50.056;8.678;2022-10-16T02:36:40;0.80;;;0.80;;
5412;SDS011;2729;50.056;8.678;2022-10-16T02:39:08;0.90;;;0.90;;
5412;SDS011;2729;50.056;8.678;2022-10-16T02:41:35;0.80;;;0.80;;
5412;SDS011;2729;50.056;8.678;2022-10-16T02:44:01;2.20;;;0.93;;
5412;SDS011;2729;50.056;8.678;2022-10-16T02:46:27;0.73;;;0.73;;
5412;SDS011;2729;50.056;8.678;2022-10-16T02:48:53;2.10;;;1.00;;
5412;SDS011;2729;50.056;8.678;2022-10-16T02:51:19;0.90;;;0.90;;
5412;SDS011;2729;50.056;8.678;2022-10-16T02:53:45;0.70;;;0.70;;
5412;SDS011;2729;50.056;8.678;2022-10-16T02:56:11;0.80;;;0.80;;
5412;SDS011;2729;50.056;8.678;2022-10-16T02:58:37;0.87;;;0.87;;
5412;SDS011;2729;50.056;8.678;2022-10-16T03:01:03;2.03;;;0.80;;
5412;SDS011;2729;50.056;8.678;2022-10-16T03:03:29;1.17;;;1.07;;
5412;SDS011;2729;50.056;8.678;2022-10-16T03:05:55;2.87;;;0.90;;
5412;SDS011;2729;50.056;8.678;2022-10-16T03:08:21;7.30;;;0.77;;
5412;SDS011;2729;50.056;8.678;2022-10-16T03:10:49;0.70;;;0.70;;
5412;SDS011;2729;50.056;8.678;2022-10-16T03:13:16;0.80;;;0.80;;
5412;SDS011;2729;50.056;8.678;2022-10-16T03:15:42;1.43;;;1.00;;
5412;SDS011;2729;50.056;8.678;2022-10-16T03:18:08;2.80;;;1.10;;
5412;SDS011;2729;50.056;8.678;2022-10-16T03:20:33;2.50;;;0.70;;
5412;SDS011;2729;50.056;8.678;2022-10-16T03:22:59;1.07;;;0.80;;
5412;SDS011;2729;50.056;8.678;2022-10-16T03:25:25;3.60;;;0.80;;
5412;SDS011;2729;50.056;8.678;2022-10-16T03:27:51;0.80;;;0.80;;
5412;SDS011;2729;50.056;8.678;2022-10-16T03:30:17;2.30;;;0.73;;
5412;SDS011;2729;50.056;8.678;2022-10-16T03:32:44;1.23;;;1.00;;
5412;SDS011;2729;50.056;8.678;2022-10-16T03:35:10;3.43;;;0.87;;
5412;SDS011;2729;50.056;8.678;2022-10-16T03:37:36;0.70;;;0.70;;
5412;SDS011;2729;50.056;8.678;2022-10-16T03:40:03;0.80;;;0.80;;
5412;SDS011;2729;50.056;8.678;2022-10-16T03:42:29;2.30;;;0.90;;
5412;SDS011;2729;50.056;8.678;2022-10-16T03:44:55;1.73;;;1.00;;
5412;SDS011;2729;50.056;8.678;2022-10-16T03:47:21;1.10;;;1.00;;
5412;SDS011;2729;50.056;8.678;2022-10-16T03:49:49;13.33;;;1.17;;
5412;SDS011;2729;50.056;8.678;2022-10-16T03:52:16;2.20;;;0.93;;
5412;SDS011;2729;50.056;8.678;2022-10-16T03:54:42;8.03;;;1.17;;
5412;SDS011;2729;50.056;8.678;2022-10-16T03:57:08;1.00;;;1.00;;
5412;SDS011;2729;50.056;8.678;2022-10-16T03:59:34;1.87;;;1.20;;
5412;SDS011;2729;50.056;8.678;2022-10-16T04:02:00;1.00;;;1.00;;
5412;SDS011;2729;50.056;8.678;2022-10-16T04:04:26;5.53;;;1.00;;
5412;SDS011;2729;50.056;8.678;2022-10-16T04:06:52;5.77;;;1.27;;
5412;SDS011;2729;50.056;8.678;2022-10-16T04:09:18;1.00;;;1.00;;
5412;SDS011;2729;50.056;8.678;2022-10-16T04:11:44;1.37;;;1.07;;
5412;SDS011;2729;50.056;8.678;2022-10-16T04:14:10;4.63;;;1.03;;
5412;SDS011;2729;50.056;8.678;2022-10-16T04:16:36;1.80;;;0.80;;
5412;SDS011;2729;50.056;8.678;2022-10-16T04:19:02;1.07;;;1.07;;
5412;SDS011;2729;50.056;8.678;2022-10-16T04:21:28;0.97;;;0.97;;
5412;SDS011;2729;50.056;8.678;2022-10-16T04:23:53;1.10;;;1.10;;
5412;SDS011;2729;50.056;8.678;2022-10-16T04:26:19;5.40;;;0.90;;
5412;SDS011;2729;50.056;8.678;2022-10-16T04:28:45;2.90;;;1.30;;
5412;SDS011;2729;50.056;8.678;2022-10-16T04:31:12;1.00;;;1.00;;
5412;SDS011;2729;50.056;8.678;2022-10-16T04:33:38;1.00;;;1.00;;
5412;SDS011;2729;50.056;8.678;2022-10-16T04:36:04;0.93;;;0.93;;
5412;SDS011;2729;50.056;8.678;2022-10-16T04:38:30;9.33;;;1.20;;
5412;SDS011;2729;50.056;8.678;2022-10-16T04:40:56;2.20;;;1.03;;
5412;SDS011;2729;50.056;8.678;2022-10-16T04:43:22;0.97;;;0.97;;
5412;SDS011;2729;50.056;8.678;2022-10-16T04:45:48;0.90;;;0.90;;
5412;SDS011;2729;50.056;8.678;2022-10-16T04:48:16;1.20;;;1.10;;
5412;SDS011;2729;50.056;8.678;2022-10-16T04:50:42;3.13;;;1.30;;
5412;SDS011;2729;50.056;8.678;2022-10-16T04:53:08;1.47;;;0.93;;
5412;SDS011;2729;50.056;8.678;2022-10-16T04:55:34;2.40;;;1.00;;
5412;SDS011;2729;50.056;8.678;2022-10-16T04:58:00;5.20;;;1.37;;
5412;SDS011;2729;50.056;8.678;2022-10-16T05:00:26;5.10;;;1.20;;
5412;SDS011;2729;50.056;8.678;2022-10-16T05:02:52;1.27;;;0.93;;
5412;SDS011;2729;50.056;8.678;2022-10-16T05:05:18;2.83;;;1.10;;
5412;SDS011;2729;50.056;8.678;2022-10-16T05:07:48;0.93;;;0.93;;
5412;SDS011;2729;50.056;8.678;2022-10-16T05:10:15;1.00;;;1.00;;
5412;SDS011;2729;50.056;8.678;2022-10-16T05:12:41;1.00;;;1.00;;
5412;SDS011;2729;50.056;8.678;2022-10-16T05:15:07;0.80;;;0.80;;
5412;SDS011;2729;50.056;8.678;2022-10-16T05:17:34;1.20;;;0.97;;
5412;SDS011;2729;50.056;8.678;2022-10-16T05:20:00;7.30;;;1.10;;
5412;SDS011;2729;50.056;8.678;2022-10-16T05:22:26;1.07;;;0.97;;
5412;SDS011;2729;50.056;8.678;2022-10-16T05:24:52;2.83;;;1.27;;
5412;SDS011;2729;50.056;8.678;2022-10-16T05:27:18;11.13;;;1.13;;
5412;SDS011;2729;50.056;8.678;2022-10-16T05:29:45;2.10;;;1.00;;
5412;SDS011;2729;50.056;8.678;2022-10-16T05:32:15;1.87;;;0.87;;
5412;SDS011;2729;50.056;8.678;2022-10-16T05:34:42;4.80;;;0.97;;
5412;SDS011;2729;50.056;8.678;2022-10-16T05:37:08;7.63;;;1.10;;
5412;SDS011;2729;50.056;8.678;2022-10-16T05:39:34;3.70;;;1.50;;
5412;SDS011;2729;50.056;8.678;2022-10-16T05:42:02;3.13;;;1.00;;
5412;SDS011;2729;50.056;8.678;2022-10-16T05:44:28;2.10;;;0.90;;
5412;SDS011;2729;50.056;8.678;2022-10-16T05:46:54;1.63;;;0.90;;
5412;SDS011;2729;50.056;8.678;2022-10-16T05:49:21;6.00;;;1.37;;
5412;SDS011;2729;50.056;8.678;2022-10-16T05:51:49;1.33;;;1.10;;
5412;SDS011;2729;50.056;8.678;2022-10-16T05:59:46;1.10;;;1.10;;
5412;SDS011;2729;50.056;8.678;2022-10-16T06:02:13;1.30;;;1.20;;
5412;SDS011;2729;50.056;8.678;2022-10-16T06:04:40;3.57;;;1.43;;
5412;SDS011;2729;50.056;8.678;2022-10-16T06:07:06;1.10;;;1.10;;
5412;SDS011;2729;50.056;8.678;2022-10-16T06:09:33;3.70;;;1.27;;
5412;SDS011;2729;50.056;8.678;2022-10-16T06:11:59;10.50;;;1.60;;
5412;SDS011;2729;50.056;8.678;2022-10-16T06:14:25;0.90;;;0.90;;
5412;SDS011;2729;50.056;8.678;2022-10-16T06:16:51;3.50;;;1.27;;
5412;SDS011;2729;50.056;8.678;2022-10-16T06:19:17;4.17;;;0.93;;
5412;SDS011;2729;50.056;8.678;2022-10-16T06:21:44;8.77;;;1.17;;
5412;SDS011;2729;50.056;8.678;2022-10-16T06:24:10;2.83;;;1.20;;
5412;SDS011;2729;50.056;8.678;2022-10-16T06:26:36;4.33;;;1.00;;
5412;SDS011;2729;50.056;8.678;2022-10-16T06:29:02;2.90;;;2.00;;
5412;SDS011;2729;50.056;8.678;2022-10-16T06:31:29;1.67;;;1.57;;
5412;SDS011;2729;50.056;8.678;2022-10-16T06:33:59;4.20;;;1.60;;
5412;SDS011;2729;50.056;8.678;2022-10-16T06:36:27;1.60;;;1.50;;
5412;SDS011;2729;50.056;8.678;2022-10-16T06:38:53;2.30;;;1.87;;
5412;SDS011;2729;50.056;8.678;2022-10-16T06:41:20;3.40;;;1.77;;
5412;SDS011;2729;50.056;8.678;2022-10-16T06:43:47;2.80;;;1.70;;
5412;SDS011;2729;50.056;8.678;2022-10-16T06:46:14;1.83;;;1.73;;
5412;SDS011;2729;50.056;8.678;2022-10-16T06:48:42;2.20;;;2.10;;
5412;SDS011;2729;50.056;8.678;2022-10-16T06:51:10;2.10;;;2.00;;
5412;SDS011;2729;50.056;8.678;2022-10-16T06:53:39;3.33;;;2.50;;
5412;SDS011;2729;50.056;8.678;2022-10-16T06:58:37;4.13;;;2.40;;
5412;SDS011;2729;50.056;8.678;2022-10-16T07:01:05;4.10;;;2.77;;
5412;SDS011;2729;50.056;8.678;2022-10-16T07:06:41;3.80;;;2.07;;
5412;SDS011;2729;50.056;8.678;2022-10-16T07:09:09;3.03;;;2.50;;
5412;SDS011;2729;50.056;8.678;2022-10-16T07:11:36;3.87;;;2.37;;
5412;SDS011;2729;50.056;8.678;2022-10-16T07:14:03;3.07;;;2.00;;
5412;SDS011;2729;50.056;8.678;2022-10-16T07:16:32;2.50;;;2.30;;
5412;SDS011;2729;50.056;8.678;2022-10-16T07:18:59;2.30;;;2.10;;
5412;SDS011;2729;50.056;8.678;2022-10-16T07:21:30;2.30;;;2.10;;
5412;SDS011;2729;50.056;8.678;2022-10-16T07:24:01;4.57;;;2.30;;
5412;SDS011;2729;50.056;8.678;2022-10-16T07:26:27;2.10;;;1.90;;
5412;SDS011;2729;50.056;8.678;2022-10-16T07:28:56;2.57;;;2.30;;
5412;SDS011;2729;50.056;8.678;2022-10-16T07:31:23;2.27;;;2.17;;
5412;SDS011;2729;50.056;8.678;2022-10-16T07:33:51;1.83;;;1.73;;
5412;SDS011;2729;50.056;8.678;2022-10-16T07:36:19;5.53;;;2.97;;
5412;SDS011;2729;50.056;8.678;2022-10-16T07:38:47;8.23;;;2.07;;
5412;SDS011;2729;50.056;8.678;2022-10-16T07:41:15;3.27;;;2.40;;
5412;SDS011;2729;50.056;8.678;2022-10-16T07:43:46;2.27;;;2.17;;
5412;SDS011;2729;50.056;8.678;2022-10-16T07:46:14;6.83;;;2.50;;
5412;SDS011;2729;50.056;8.678;2022-10-16T07:48:42;4.90;;;2.43;;
5412;SDS011;2729;50.056;8.678;2022-10-16T07:51:11;4.20;;;2.50;;
5412;SDS011;2729;50.056;8.678;2022-10-16T07:53:38;2.80;;;2.60;;
5412;SDS011;2729;50.056;8.678;2022-10-16T07:56:05;3.23;;;2.67;;
5412;SDS011;2729;50.056;8.678;2022-10-16T07:58:32;11.07;;;3.20;;
5412;SDS011;2729;50.056;8.678;2022-10-16T08:01:02;5.03;;;2.73;;
5412;SDS011;2729;50.056;8.678;2022-10-16T08:03:31;3.30;;;2.37;;
5412;SDS011;2729;50.056;8.678;2022-10-16T08:05:57;2.47;;;2.33;;
5412;SDS011;2729;50.056;8.678;2022-10-16T08:11:06;4.57;;;2.17;;
5412;SDS011;2729;50.056;8.678;2022-10-16T08:13:32;2.60;;;2.40;;
5412;SDS011;2729;50.056;8.678;2022-10-16T08:15:59;2.53;;;2.33;;
5412;SDS011;2729;50.056;8.678;2022-10-16T08:18:25;2.70;;;2.20;;
5412;SDS011;2729;50.056;8.678;2022-10-16T08:20:55;2.30;;;2.10;;
5412;SDS011;2729;50.056;8.678;2022-10-16T08:23:22;6.30;;;2.57;;
5412;SDS011;2729;50.056;8.678;2022-10-16T08:25:49;2.60;;;2.13;;
5412;SDS011;2729;50.056;8.678;2022-10-16T08:28:15;3.00;;;2.53;;
5412;SDS011;2729;50.056;8.678;2022-10-16T08:30:42;7.00;;;2.50;;
5412;SDS011;2729;50.056;8.678;2022-10-16T08:33:08;2.27;;;2.10;;
5412;SDS011;2729;50.056;8.678;2022-10-16T08:35:34;2.93;;;2.63;;
5412;SDS011;2729;50.056;8.678;2022-10-16T08:38:00;5.77;;;2.50;;
5412;SDS011;2729;50.056;8.678;2022-10-16T08:40:29;2.93;;;2.70;;
5412;SDS011;2729;50.056;8.678;2022-10-16T08:45:49;4.10;;;3.70;;
5412;SDS011;2729;50.056;8.678;2022-10-16T08:48:35;6.50;;;3.53;;
5412;SDS011;2729;50.056;8.678;2022-10-16T08:51:11;3.77;;;3.40;;
5412;SDS011;2729;50.056;8.678;2022-10-16T08:53:46;3.63;;;3.20;;
5412;SDS011;2729;50.056;8.678;2022-10-16T08:56:17;7.80;;;4.37;;
5412;SDS011;2729;50.056;8.678;2022-10-16T08:58:44;4.73;;;3.70;;
5412;SDS011;2729;50.056;8.678;2022-10-16T09:01:14;5.97;;;3.93;;
5412;SDS011;2729;50.056;8.678;2022-10-16T09:06:36;4.40;;;4.00;;
5412;SDS011;2729;50.056;8.678;2022-10-16T09:09:23;6.73;;;4.73;;
5412;SDS011;2729;50.056;8.678;2022-10-16T09:12:15;12.90;;;5.20;;
5412;SDS011;2729;50.056;8.678;2022-10-16T09:14:57;5.23;;;4.40;;
5412;SDS011;2729;50.056;8.678;2022-10-16T09:17:53;4.73;;;4.23;;
5412;SDS011;2729;50.056;8.678;2022-10-16T09:23:18;9.40;;;4.60;;
5412;SDS011;2729;50.056;8.678;2022-10-16T09:25:48;6.70;;;5.10;;
5412;SDS011;2729;50.056;8.678;2022-10-16T09:28:16;7.87;;;5.13;;
5412;SDS011;2729;50.056;8.678;2022-10-16T09:30:43;6.10;;;4.40;;
5412;SDS011;2729;50.056;8.678;2022-10-16T09:33:10;5.63;;;4.70;;
5412;SDS011;2729;50.056;8.678;2022-10-16T09:35:46;8.60;;;4.77;;
5412;SDS011;2729;50.056;8.678;2022-10-16T09:38:22;7.50;;;5.23;;
5412;SDS011;2729;50.056;8.678;2022-10-16T09:40:56;7.17;;;4.63;;
5412;SDS011;2729;50.056;8.678;2022-10-16T09:43:24;7.97;;;5.03;;
5412;SDS011;2729;50.056;8.678;2022-10-16T09:46:01;15.10;;;4.83;;
5412;SDS011;2729;50.056;8.678;2022-10-16T09:48:44;10.33;;;4.90;;
5412;SDS011;2729;50.056;8.678;2022-10-16T09:51:25;6.40;;;4.70;;
5412;SDS011;2729;50.056;8.678;2022-10-16T09:53:57;7.57;;;4.53;;
5412;SDS011;2729;50.056;8.678;2022-10-16T09:56:26;4.80;;;4.30;;
5412;SDS011;2729;50.056;8.678;2022-10-16T09:58:56;5.50;;;4.90;;
5412;SDS011;2729;50.056;8.678;2022-10-16T10:01:26;5.30;;;4.40;;
5412;SDS011;2729;50.056;8.678;2022-10-16T10:03:57;4.93;;;4.43;;
5412;SDS011;2729;50.056;8.678;2022-10-16T10:06:29;6.40;;;4.47;;
5412;SDS011;2729;50.056;8.678;2022-10-16T10:09:00;5.97;;;5.13;;
5412;SDS011;2729;50.056;8.678;2022-10-16T10:11:37;4.57;;;4.20;;
5412;SDS011;2729;50.056;8.678;2022-10-16T10:14:14;9.97;;;4.53;;
5412;SDS011;2729;50.056;8.678;2022-10-16T10:24:56;8.80;;;4.80;;
5412;SDS011;2729;50.056;8.678;2022-10-16T10:27:29;5.03;;;4.43;;
5412;SDS011;2729;50.056;8.678;2022-10-16T10:30:10;6.37;;;5.13;;
5412;SDS011;2729;50.056;8.678;2022-10-16T10:39:04;8.30;;;5.17;;
5412;SDS011;2729;50.056;8.678;2022-10-16T10:44:29;9.00;;;5.50;;
5412;SDS011;2729;50.056;8.678;2022-10-16T10:50:02;5.30;;;4.80;;
5412;SDS011;2729;50.056;8.678;2022-10-16T10:55:40;6.67;;;5.33;;
5412;SDS011;2729;50.056;8.678;2022-10-16T10:58:17;9.83;;;6.47;;
5412;SDS011;2729;50.056;8.678;2022-10-16T11:06:31;16.10;;;6.07;;
5412;SDS011;2729;50.056;8.678;2022-10-16T11:12:18;17.87;;;5.50;;
5412;SDS011;2729;50.056;8.678;2022-10-16T11:17:46;5.97;;;4.90;;
5412;SDS011;2729;50.056;8.678;2022-10-16T11:20:17;7.80;;;4.53;;
5412;SDS011;2729;50.056;8.678;2022-10-16T11:22:48;5.40;;;4.17;;
5412;SDS011;2729;50.056;8.678;2022-10-16T11:25:29;6.67;;;4.77;;
5412;SDS011;2729;50.056;8.678;2022-10-16T11:30:29;4.20;;;3.87;;
5412;SDS011;2729;50.056;8.678;2022-10-16T11:35:44;4.80;;;3.97;;
5412;SDS011;2729;50.056;8.678;2022-10-16T11:41:15;5.37;;;3.90;;
5412;SDS011;2729;50.056;8.678;2022-10-16T11:49:30;3.67;;;3.37;;
5412;SDS011;2729;50.056;8.678;2022-10-16T11:54:54;3.17;;;2.90;;
5412;SDS011;2729;50.056;8.678;2022-10-16T11:57:29;2.57;;;2.37;;
5412;SDS011;2729;50.056;8.678;2022-10-16T12:00:01;8.60;;;3.23;;
5412;SDS011;2729;50.056;8.678;2022-10-16T12:03:09;3.50;;;3.20;;
5412;SDS011;2729;50.056;8.678;2022-10-16T12:05:51;3.10;;;2.90;;
5412;SDS011;2729;50.056;8.678;2022-10-16T12:08:21;3.30;;;3.10;;
5412;SDS011;2729;50.056;8.678;2022-10-16T12:10:47;3.07;;;2.87;;
5412;SDS011;2729;50.056;8.678;2022-10-16T12:15:52;2.67;;;2.50;;
5412;SDS011;2729;50.056;8.678;2022-10-16T12:18:46;2.60;;;2.50;;
5412;SDS011;2729;50.056;8.678;2022-10-16T12:21:13;3.27;;;2.30;;
5412;SDS011;2729;50.056;8.678;2022-10-16T12:23:54;2.10;;;2.00;;
5412;SDS011;2729;50.056;8.678;2022-10-16T12:26:28;2.77;;;2.53;;
5412;SDS011;2729;50.056;8.678;2022-10-16T12:29:08;4.53;;;2.10;;
5412;SDS011;2729;50.056;8.678;2022-10-16T12:31:43;4.47;;;2.33;;
5412;SDS011;2729;50.056;8.678;2022-10-16T12:37:19;1.57;;;1.53;;
5412;SDS011;2729;50.056;8.678;2022-10-16T12:39:48;1.27;;;1.27;;
5412;SDS011;2729;50.056;8.678;2022-10-16T12:42:19;1.30;;;1.30;;
5412;SDS011;2729;50.056;8.678;2022-10-16T12:44:48;1.63;;;1.50;;
5412;SDS011;2729;50.056;8.678;2022-10-16T12:47:21;1.50;;;1.50;;
5412;SDS011;2729;50.056;8.678;2022-10-16T12:49:53;3.23;;;1.60;;
5412;SDS011;2729;50.056;8.678;2022-10-16T12:52:27;2.93;;;2.63;;
5412;SDS011;2729;50.056;8.678;2022-10-16T12:54:59;1.67;;;1.57;;
5412;SDS011;2729;50.056;8.678;2022-10-16T13:02:57;1.43;;;1.43;;
5412;SDS011;2729;50.056;8.678;2022-10-16T13:14:32;3.90;;;2.00;;
5412;SDS011;2729;50.056;8.678;2022-10-16T13:28:13;2.03;;;1.67;;
5412;SDS011;2729;50.056;8.678;2022-10-16T13:30:41;1.50;;;1.40;;
5412;SDS011;2729;50.056;8.678;2022-10-16T13:33:16;2.00;;;1.90;;
5412;SDS011;2729;50.056;8.678;2022-10-16T13:35:47;3.97;;;1.73;;
5412;SDS011;2729;50.056;8.678;2022-10-16T13:38:17;1.10;;;1.10;;
5412;SDS011;2729;50.056;8.678;2022-10-16T13:40:50;1.57;;;1.47;;
5412;SDS011;2729;50.056;8.678;2022-10-16T13:43:24;2.13;;;1.73;;
5412;SDS011;2729;50.056;8.678;2022-10-16T13:48:24;1.43;;;1.33;;
5412;SDS011;2729;50.056;8.678;2022-10-16T13:51:01;1.63;;;1.53;;
5412;SDS011;2729;50.056;8.678;2022-10-16T13:53:33;2.20;;;2.00;;
5412;SDS011;2729;50.056;8.678;2022-10-16T13:56:01;1.67;;;1.57;;
5412;SDS011;2729;50.056;8.678;2022-10-16T13:58:29;3.80;;;1.90;;
5412;SDS011;2729;50.056;8.678;2022-10-16T14:01:01;1.93;;;1.83;;
5412;SDS011;2729;50.056;8.678;2022-10-16T14:03:32;1.67;;;1.57;;
5412;SDS011;2729;50.056;8.678;2022-10-16T14:06:03;1.70;;;1.60;;
5412;SDS011;2729;50.056;8.678;2022-10-16T14:08:35;1.47;;;1.37;;
5412;SDS011;2729;50.056;8.678;2022-10-16T14:11:06;8.43;;;1.73;;
5412;SDS011;2729;50.056;8.678;2022-10-16T14:13:51;1.50;;;1.50;;
5412;SDS011;2729;50.056;8.678;2022-10-16T14:16:27;1.67;;;1.57;;
5412;SDS011;2729;50.056;8.678;2022-10-16T14:19:06;1.63;;;1.57;;
5412;SDS011;2729;50.056;8.678;2022-10-16T14:21:54;1.67;;;1.57;;
5412;SDS011;2729;50.056;8.678;2022-10-16T14:24:30;2.03;;;1.93;;
5412;SDS011;2729;50.056;8.678;2022-10-16T14:27:30;1.67;;;1.57;;
5412;SDS011;2729;50.056;8.678;2022-10-16T14:30:20;4.20;;;1.70;;
5412;SDS011;2729;50.056;8.678;2022-10-16T14:32:56;4.70;;;2.00;;
5412;SDS011;2729;50.056;8.678;2022-10-16T14:35:28;1.60;;;1.50;;
5412;SDS011;2729;50.056;8.678;2022-10-16T14:38:06;1.53;;;1.33;;
5412;SDS011;2729;50.056;8.678;2022-10-16T14:40:48;1.40;;;1.33;;
5412;SDS011;2729;50.056;8.678;2022-10-16T14:43:21;1.80;;;1.70;;
5412;SDS011;2729;50.056;8.678;2022-10-16T14:46:03;2.13;;;1.90;;
5412;SDS011;2729;50.056;8.678;2022-10-16T14:48:42;3.30;;;2.00;;
5412;SDS011;2729;50.056;8.678;2022-10-16T14:51:16;2.13;;;1.50;;
5412;SDS011;2729;50.056;8.678;2022-10-16T14:53:46;1.43;;;1.30;;
5412;SDS011;2729;50.056;8.678;2022-10-16T14:56:21;12.57;;;1.50;;
5412;SDS011;2729;50.056;8.678;2022-10-16T14:58:54;1.80;;;1.70;;
5412;SDS011;2729;50.056;8.678;2022-10-16T15:01:22;3.07;;;1.30;;
5412;SDS011;2729;50.056;8.678;2022-10-16T15:03:50;4.10;;;1.67;;
5412;SDS011;2729;50.056;8.678;2022-10-16T15:06:21;4.10;;;1.90;;
5412;SDS011;2729;50.056;8.678;2022-10-16T15:08:50;2.07;;;1.87;;
5412;SDS011;2729;50.056;8.678;2022-10-16T15:11:20;1.90;;;1.80;;
5412;SDS011;2729;50.056;8.678;2022-10-16T15:13:49;4.33;;;1.80;;
5412;SDS011;2729;50.056;8.678;2022-10-16T15:16:19;4.47;;;1.90;;
5412;SDS011;2729;50.056;8.678;2022-10-16T15:18:53;1.73;;;1.63;;
5412;SDS011;2729;50.056;8.678;2022-10-16T15:21:31;1.70;;;1.60;;
5412;SDS011;2729;50.056;8.678;2022-10-16T15:23:58;2.83;;;1.60;;
5412;SDS011;2729;50.056;8.678;2022-10-16T15:26:26;1.73;;;1.63;;
5412;SDS011;2729;50.056;8.678;2022-10-16T15:28:53;1.80;;;1.60;;
5412;SDS011;2729;50.056;8.678;2022-10-16T15:31:20;1.77;;;1.67;;
5412;SDS011;2729;50.056;8.678;2022-10-16T15:33:51;7.23;;;2.23;;
5412;SDS011;2729;50.056;8.678;2022-10-16T15:36:25;10.03;;;4.23;;
5412;SDS011;2729;50.056;8.678;2022-10-16T15:38:55;11.83;;;1.80;;
5412;SDS011;2729;50.056;8.678;2022-10-16T15:41:21;2.30;;;1.60;;
5412;SDS011;2729;50.056;8.678;2022-10-16T15:43:48;1.50;;;1.50;;
5412;SDS011;2729;50.056;8.678;2022-10-16T15:46:15;4.33;;;1.90;;
5412;SDS011;2729;50.056;8.678;2022-10-16T15:48:47;1.80;;;1.70;;
5412;SDS011;2729;50.056;8.678;2022-10-16T15:51:14;2.50;;;1.77;;
5412;SDS011;2729;50.056;8.678;2022-10-16T15:53:40;1.80;;;1.77;;
5412;SDS011;2729;50.056;8.678;2022-10-16T15:56:07;11.80;;;2.00;;
5412;SDS011;2729;50.056;8.678;2022-10-16T15:58:34;6.50;;;1.83;;
5412;SDS011;2729;50.056;8.678;2022-10-16T16:01:01;2.63;;;1.73;;
5412;SDS011;2729;50.056;8.678;2022-10-16T16:03:29;2.27;;;2.17;;
5412;SDS011;2729;50.056;8.678;2022-10-16T16:05:56;2.87;;;2.27;;
5412;SDS011;2729;50.056;8.678;2022-10-16T16:08:22;3.60;;;1.90;;
5412;SDS011;2729;50.056;8.678;2022-10-16T16:10:58;2.20;;;2.10;;
5412;SDS011;2729;50.056;8.678;2022-10-16T16:13:28;2.97;;;2.00;;
5412;SDS011;2729;50.056;8.678;2022-10-16T16:15:54;5.77;;;2.23;;
5412;SDS011;2729;50.056;8.678;2022-10-16T16:18:20;3.17;;;2.10;;
5412;SDS011;2729;50.056;8.678;2022-10-16T16:20:47;2.87;;;2.10;;
5412;SDS011;2729;50.056;8.678;2022-10-16T16:23:13;3.87;;;1.93;;
5412;SDS011;2729;50.056;8.678;2022-10-16T16:25:39;2.20;;;2.10;;
5412;SDS011;2729;50.056;8.678;2022-10-16T16:28:05;3.50;;;1.90;;
5412;SDS011;2729;50.056;8.678;2022-10-16T16:30:32;5.53;;;1.83;;
5412;SDS011;2729;50.056;8.678;2022-10-16T16:32:58;4.07;;;1.80;;
5412;SDS011;2729;50.056;8.678;2022-10-16T16:35:24;6.60;;;2.17;;
5412;SDS011;2729;50.056;8.678;2022-10-16T16:37:50;2.23;;;1.90;;
5412;SDS011;2729;50.056;8.678;2022-10-16T16:40:17;2.33;;;2.17;;
5412;SDS011;2729;50.056;8.678;2022-10-16T16:42:44;2.63;;;2.33;;
5412;SDS011;2729;50.056;8.678;2022-10-16T16:45:10;3.03;;;2.80;;
5412;SDS011;2729;50.056;8.678;2022-10-16T16:47:36;5.17;;;2.70;;
5412;SDS011;2729;50.056;8.678;2022-10-16T16:50:04;4.03;;;2.80;;
5412;SDS011;2729;50.056;8.678;2022-10-16T16:52:30;3.87;;;3.10;;
5412;SDS011;2729;50.056;8.678;2022-10-16T16:54:56;7.10;;;2.80;;
5412;SDS011;2729;50.056;8.678;2022-10-16T16:57:22;2.90;;;2.70;;
5412;SDS011;2729;50.056;8.678;2022-10-16T16:59:49;7.80;;;3.03;;
5412;SDS011;2729;50.056;8.678;2022-10-16T17:02:16;9.33;;;2.87;;
5412;SDS011;2729;50.056;8.678;2022-10-16T17:04:43;7.07;;;3.07;;
5412;SDS011;2729;50.056;8.678;2022-10-16T17:07:11;6.63;;;3.00;;
5412;SDS011;2729;50.056;8.678;2022-10-16T17:09:37;3.10;;;2.80;;
5412;SDS011;2729;50.056;8.678;2022-10-16T17:12:04;4.77;;;2.63;;
5412;SDS011;2729;50.056;8.678;2022-10-16T17:14:30;3.80;;;2.30;;
5412;SDS011;2729;50.056;8.678;2022-10-16T17:16:56;2.23;;;2.13;;
5412;SDS011;2729;50.056;8.678;2022-10-16T17:19:22;2.77;;;2.30;;
5412;SDS011;2729;50.056;8.678;2022-10-16T17:21:49;6.33;;;2.63;;
5412;SDS011;2729;50.056;8.678;2022-10-16T17:24:15;1.90;;;1.80;;
5412;SDS011;2729;50.056;8.678;2022-10-16T17:26:43;2.80;;;2.60;;
5412;SDS011;2729;50.056;8.678;2022-10-16T17:29:13;3.80;;;2.67;;
5412;SDS011;2729;50.056;8.678;2022-10-16T17:31:40;4.00;;;2.47;;